sensor_id;sensor_type;location;lat;lon;timestamp;pressure;altitude;pressure_sealevel;temperature;humidity
50368;BME280;36281;34.132;-118.018;2023-02-28T00:01:45;100483.56;;;11.32;90.54
50368;BME280;36281;34.132;-118.018;2023-02-28T00:04:14;100479.72;;;11.35;91.12
50368;BME280;36281;34.132;-118.018;2023-02-28T00:06:43;100479.91;;;11.33;91.01
50368;BME280;36281;34.132;-118.018;2023-02-28T00:09:13;100473.78;;;11.33;91.03
50368;BME280;36281;34.132;-118.018;2023-02-28T00:11:42;100479.09;;;11.33;91.30
50368;BME280;36281;34.132;-118.018;2023-02-28T00:14:11;100479.28;;;11.31;90.87
50368;BME280;36281;34.132;-118.018;2023-02-28T00:16:40;100466.84;;;11.32;91.57
50368;BME280;36281;34.132;-118.018;2023-02-28T00:19:09;100457.69;;;11.34;91.95
50368;BME280;36281;34.132;-118.018;2023-02-28T00:21:41;100455.25;;;11.39;92.55
50368;BME280;36281;34.132;-118.018;2023-02-28T00:24:11;100454.81;;;11.43;92.91
50368;BME280;36281;34.132;-118.018;2023-02-28T00:26:42;100453.41;;;11.47;92.50
50368;BME280;36281;34.132;-118.018;2023-02-28T00:29:11;100453.19;;;11.48;92.19
50368;BME280;36281;34.132;-118.018;2023-02-28T00:31:39;100456.25;;;11.52;92.34
50368;BME280;36281;34.132;-118.018;2023-02-28T00:34:08;100455.22;;;11.53;92.11
50368;BME280;36281;34.132;-118.018;2023-02-28T00:36:38;100443.41;;;11.55;92.20
50368;BME280;36281;34.132;-118.018;2023-02-28T00:39:07;100452.41;;;11.54;91.93
50368;BME280;36281;34.132;-118.018;2023-02-28T00:41:36;100445.25;;;11.55;91.88
50368;BME280;36281;34.132;-118.018;2023-02-28T00:44:07;100452.41;;;11.54;91.87
50368;BME280;36281;34.132;-118.018;2023-02-28T00:46:36;100457.50;;;11.56;92.23
50368;BME280;36281;34.132;-118.018;2023-02-28T00:49:05;100447.28;;;11.53;91.92
50368;BME280;36281;34.132;-118.018;2023-02-28T00:51:34;100441.16;;;11.52;91.82
50368;BME280;36281;34.132;-118.018;2023-02-28T00:54:03;100449.31;;;11.51;91.70
50368;BME280;36281;34.132;-118.018;2023-02-28T00:56:32;100455.66;;;11.50;92.06
50368;BME280;36281;34.132;-118.018;2023-02-28T00:59:01;100454.84;;;11.49;92.04
50368;BME280;36281;34.132;-118.018;2023-02-28T01:01:32;100449.53;;;11.49;92.11
50368;BME280;36281;34.132;-118.018;2023-02-28T01:04:02;100450.75;;;11.47;92.20
50368;BME280;36281;34.132;-118.018;2023-02-28T01:06:33;100464.22;;;11.45;92.26
50368;BME280;36281;34.132;-118.018;2023-02-28T01:09:03;100456.25;;;11.45;92.61
50368;BME280;36281;34.132;-118.018;2023-02-28T01:11:33;100453.41;;;11.40;92.26
50368;BME280;36281;34.132;-118.018;2023-02-28T01:14:03;100454.44;;;11.39;91.89
50368;BME280;36281;34.132;-118.018;2023-02-28T01:16:34;100464.19;;;11.38;92.15
50368;BME280;36281;34.132;-118.018;2023-02-28T01:19:03;100454.00;;;11.35;92.18
50368;BME280;36281;34.132;-118.018;2023-02-28T01:21:32;100451.56;;;11.34;92.32
50368;BME280;36281;34.132;-118.018;2023-02-28T01:24:01;100453.59;;;11.32;91.98
50368;BME280;36281;34.132;-118.018;2023-02-28T01:26:31;100451.16;;;11.30;91.62
50368;BME280;36281;34.132;-118.018;2023-02-28T01:29:00;100452.34;;;11.28;92.05
50368;BME280;36281;34.132;-118.018;2023-02-28T01:31:29;100455.81;;;11.28;91.83
50368;BME280;36281;34.132;-118.018;2023-02-28T01:34:00;100456.84;;;11.27;92.09
50368;BME280;36281;34.132;-118.018;2023-02-28T01:36:29;100459.69;;;11.26;92.45
50368;BME280;36281;34.132;-118.018;2023-02-28T01:38:59;100455.22;;;11.26;92.67
50368;BME280;36281;34.132;-118.018;2023-02-28T01:41:30;100445.81;;;11.24;92.42
50368;BME280;36281;34.132;-118.018;2023-02-28T01:44:02;100448.69;;;11.22;92.40
50368;BME280;36281;34.132;-118.018;2023-02-28T01:46:32;100453.16;;;11.22;92.06
50368;BME280;36281;34.132;-118.018;2023-02-28T01:49:06;100453.38;;;11.20;92.27
50368;BME280;36281;34.132;-118.018;2023-02-28T01:51:46;100441.16;;;11.19;92.71
50368;BME280;36281;34.132;-118.018;2023-02-28T01:54:27;100443.59;;;11.14;92.69
50368;BME280;36281;34.132;-118.018;2023-02-28T01:57:00;100444.56;;;11.13;92.75
50368;BME280;36281;34.132;-118.018;2023-02-28T01:59:34;100451.94;;;11.11;92.76
50368;BME280;36281;34.132;-118.018;2023-02-28T02:02:04;100444.78;;;11.11;92.92
50368;BME280;36281;34.132;-118.018;2023-02-28T02:04:38;100452.75;;;11.11;93.08
50368;BME280;36281;34.132;-118.018;2023-02-28T02:07:08;100444.19;;;11.09;93.52
50368;BME280;36281;34.132;-118.018;2023-02-28T02:09:37;100438.06;;;11.09;93.37
50368;BME280;36281;34.132;-118.018;2023-02-28T02:12:23;100447.22;;;11.06;93.65
50368;BME280;36281;34.132;-118.018;2023-02-28T02:15:02;100454.75;;;11.03;93.27
50368;BME280;36281;34.132;-118.018;2023-02-28T02:17:37;100450.25;;;11.03;93.29
50368;BME280;36281;34.132;-118.018;2023-02-28T02:20:39;100454.75;;;11.03;93.62
50368;BME280;36281;34.132;-118.018;2023-02-28T02:23:33;100453.50;;;10.99;93.59
50368;BME280;36281;34.132;-118.018;2023-02-28T02:26:41;100455.94;;;10.94;93.33
50368;BME280;36281;34.132;-118.018;2023-02-28T02:29:39;100462.47;;;10.91;93.08
50368;BME280;36281;34.132;-118.018;2023-02-28T02:32:13;100455.53;;;10.90;93.08
50368;BME280;36281;34.132;-118.018;2023-02-28T02:34:55;100446.56;;;10.84;92.92
50368;BME280;36281;34.132;-118.018;2023-02-28T02:37:31;100445.72;;;10.77;92.23
50368;BME280;36281;34.132;-118.018;2023-02-28T02:40:11;100443.03;;;10.71;91.95
50368;BME280;36281;34.132;-118.018;2023-02-28T02:42:48;100450.75;;;10.66;91.72
50368;BME280;36281;34.132;-118.018;2023-02-28T02:45:23;100447.91;;;10.60;92.02
50368;BME280;36281;34.132;-118.018;2023-02-28T02:47:54;100450.31;;;10.55;91.49
50368;BME280;36281;34.132;-118.018;2023-02-28T02:50:29;100455.19;;;10.52;91.39
50368;BME280;36281;34.132;-118.018;2023-02-28T02:53:01;100454.97;;;10.47;91.35
50368;BME280;36281;34.132;-118.018;2023-02-28T02:55:34;100443.13;;;10.43;91.33
50368;BME280;36281;34.132;-118.018;2023-02-28T02:58:08;100447.16;;;10.39;91.50
50368;BME280;36281;34.132;-118.018;2023-02-28T03:00:43;100443.91;;;10.37;91.79
50368;BME280;36281;34.132;-118.018;2023-02-28T03:03:16;100454.88;;;10.33;91.90
50368;BME280;36281;34.132;-118.018;2023-02-28T03:05:51;100461.41;;;10.31;92.00
50368;BME280;36281;34.132;-118.018;2023-02-28T03:08:20;100465.22;;;10.28;92.00
50368;BME280;36281;34.132;-118.018;2023-02-28T03:10:50;100454.03;;;10.26;92.71
50368;BME280;36281;34.132;-118.018;2023-02-28T03:13:43;100454.84;;;10.27;93.14
50368;BME280;36281;34.132;-118.018;2023-02-28T03:16:41;100462.78;;;10.27;93.54
50368;BME280;36281;34.132;-118.018;2023-02-28T03:19:37;100453.66;;;10.29;94.04
50368;BME280;36281;34.132;-118.018;2023-02-28T03:22:33;100458.94;;;10.29;94.38
50368;BME280;36281;34.132;-118.018;2023-02-28T03:25:14;100465.22;;;10.28;94.65
50368;BME280;36281;34.132;-118.018;2023-02-28T03:27:55;100464.25;;;10.29;94.89
50368;BME280;36281;34.132;-118.018;2023-02-28T03:30:32;100465.88;;;10.30;94.88
50368;BME280;36281;34.132;-118.018;2023-02-28T03:33:07;100470.97;;;10.32;95.26
50368;BME280;36281;34.132;-118.018;2023-02-28T03:35:39;100481.34;;;10.33;95.43
50368;BME280;36281;34.132;-118.018;2023-02-28T03:38:16;100483.81;;;10.35;95.44
50368;BME280;36281;34.132;-118.018;2023-02-28T03:40:48;100489.94;;;10.35;95.12
50368;BME280;36281;34.132;-118.018;2023-02-28T03:43:21;100488.47;;;10.33;95.22
50368;BME280;36281;34.132;-118.018;2023-02-28T03:45:52;100487.47;;;10.34;95.45
50368;BME280;36281;34.132;-118.018;2023-02-28T03:48:27;100484.81;;;10.34;95.37
50368;BME280;36281;34.132;-118.018;2023-02-28T03:50:59;100478.72;;;10.33;95.76
50368;BME280;36281;34.132;-118.018;2023-02-28T03:53:34;100476.06;;;10.33;95.82
50368;BME280;36281;34.132;-118.018;2023-02-28T03:56:09;100469.13;;;10.32;95.71
50368;BME280;36281;34.132;-118.018;2023-02-28T03:58:46;100462.41;;;10.30;95.66
50368;BME280;36281;34.132;-118.018;2023-02-28T04:01:20;100465.66;;;10.25;95.46
50368;BME280;36281;34.132;-118.018;2023-02-28T04:03:51;100477.41;;;10.23;95.37
50368;BME280;36281;34.132;-118.018;2023-02-28T04:06:21;100476.97;;;10.19;94.83
50368;BME280;36281;34.132;-118.018;2023-02-28T04:08:53;100476.91;;;10.13;94.30
50368;BME280;36281;34.132;-118.018;2023-02-28T04:11:26;100479.13;;;10.09;94.09
50368;BME280;36281;34.132;-118.018;2023-02-28T04:13:57;100480.72;;;10.03;93.44
50368;BME280;36281;34.132;-118.018;2023-02-28T04:16:26;100481.28;;;9.99;93.14
50368;BME280;36281;34.132;-118.018;2023-02-28T04:19:03;100482.72;;;9.95;93.00
50368;BME280;36281;34.132;-118.018;2023-02-28T04:21:35;100492.84;;;9.91;92.93
50368;BME280;36281;34.132;-118.018;2023-02-28T04:24:07;100484.69;;;9.86;92.78
50368;BME280;36281;34.132;-118.018;2023-02-28T04:26:37;100485.50;;;9.87;92.74
50368;BME280;36281;34.132;-118.018;2023-02-28T04:29:06;100485.88;;;9.83;92.82
50368;BME280;36281;34.132;-118.018;2023-02-28T04:31:36;100487.09;;;9.81;92.93
50368;BME280;36281;34.132;-118.018;2023-02-28T04:34:05;100488.28;;;9.78;92.88
50368;BME280;36281;34.132;-118.018;2023-02-28T04:36:34;100495.38;;;9.78;92.88
50368;BME280;36281;34.132;-118.018;2023-02-28T04:39:05;100496.41;;;9.77;92.96
50368;BME280;36281;34.132;-118.018;2023-02-28T04:41:34;100494.94;;;9.74;93.02
50368;BME280;36281;34.132;-118.018;2023-02-28T04:44:03;100495.59;;;9.76;93.50
50368;BME280;36281;34.132;-118.018;2023-02-28T04:46:32;100499.25;;;9.75;93.54
50368;BME280;36281;34.132;-118.018;2023-02-28T04:49:01;100499.25;;;9.75;94.15
50368;BME280;36281;34.132;-118.018;2023-02-28T04:51:31;100501.25;;;9.73;94.41
50368;BME280;36281;34.132;-118.018;2023-02-28T04:54:00;100502.72;;;9.76;94.78
50368;BME280;36281;34.132;-118.018;2023-02-28T04:56:30;100509.84;;;9.75;95.00
50368;BME280;36281;34.132;-118.018;2023-02-28T04:59:00;100511.47;;;9.76;95.25
50368;BME280;36281;34.132;-118.018;2023-02-28T05:01:29;100519.19;;;9.78;95.56
50368;BME280;36281;34.132;-118.018;2023-02-28T05:04:00;100521.63;;;9.79;95.72
50368;BME280;36281;34.132;-118.018;2023-02-28T05:06:31;100516.19;;;9.81;95.93
50368;BME280;36281;34.132;-118.018;2023-02-28T05:09:01;100523.09;;;9.82;96.24
50368;BME280;36281;34.132;-118.018;2023-02-28T05:11:33;100527.38;;;9.83;96.17
50368;BME280;36281;34.132;-118.018;2023-02-28T05:14:04;100519.28;;;9.84;96.22
50368;BME280;36281;34.132;-118.018;2023-02-28T05:16:34;100519.06;;;9.86;96.24
50368;BME280;36281;34.132;-118.018;2023-02-28T05:19:04;100521.53;;;9.88;96.62
50368;BME280;36281;34.132;-118.018;2023-02-28T05:21:35;100533.38;;;9.92;96.85
50368;BME280;36281;34.132;-118.018;2023-02-28T05:24:06;100532.34;;;9.93;97.13
50368;BME280;36281;34.132;-118.018;2023-02-28T05:26:39;100526.03;;;9.94;97.18
50368;BME280;36281;34.132;-118.018;2023-02-28T05:29:09;100533.81;;;9.95;97.57
50368;BME280;36281;34.132;-118.018;2023-02-28T05:31:38;100535.63;;;9.95;97.74
50368;BME280;36281;34.132;-118.018;2023-02-28T05:34:08;100541.53;;;9.97;97.70
50368;BME280;36281;34.132;-118.018;2023-02-28T05:36:39;100543.81;;;10.00;97.90
50368;BME280;36281;34.132;-118.018;2023-02-28T05:39:08;100537.31;;;10.02;98.13
50368;BME280;36281;34.132;-118.018;2023-02-28T05:41:43;100544.25;;;10.03;98.29
50368;BME280;36281;34.132;-118.018;2023-02-28T05:44:12;100546.06;;;10.03;98.48
50368;BME280;36281;34.132;-118.018;2023-02-28T05:46:41;100543.41;;;10.03;98.64
50368;BME280;36281;34.132;-118.018;2023-02-28T05:49:10;100543.06;;;10.06;98.57
50368;BME280;36281;34.132;-118.018;2023-02-28T05:51:39;100537.56;;;10.07;98.83
50368;BME280;36281;34.132;-118.018;2023-02-28T05:54:09;100547.78;;;10.10;98.76
50368;BME280;36281;34.132;-118.018;2023-02-28T05:56:42;100543.28;;;10.11;98.77
50368;BME280;36281;34.132;-118.018;2023-02-28T05:59:14;100540.44;;;10.13;98.82
50368;BME280;36281;34.132;-118.018;2023-02-28T06:01:44;100540.44;;;10.13;98.81
50368;BME280;36281;34.132;-118.018;2023-02-28T06:04:21;100546.56;;;10.13;98.58
50368;BME280;36281;34.132;-118.018;2023-02-28T06:06:58;100547.19;;;10.15;98.51
50368;BME280;36281;34.132;-118.018;2023-02-28T06:09:27;100554.50;;;10.13;98.71
50368;BME280;36281;34.132;-118.018;2023-02-28T06:12:00;100549.03;;;10.15;98.70
50368;BME280;36281;34.132;-118.018;2023-02-28T06:14:33;100541.09;;;10.15;98.77
50368;BME280;36281;34.132;-118.018;2023-02-28T06:17:02;100542.88;;;10.14;98.77
50368;BME280;36281;34.132;-118.018;2023-02-28T06:19:32;100539.25;;;10.15;98.73
50368;BME280;36281;34.132;-118.018;2023-02-28T06:22:01;100543.91;;;10.13;98.96
50368;BME280;36281;34.132;-118.018;2023-02-28T06:24:30;100542.88;;;10.14;99.09
50368;BME280;36281;34.132;-118.018;2023-02-28T06:27:01;100540.25;;;10.14;98.67
50368;BME280;36281;34.132;-118.018;2023-02-28T06:29:33;100538.00;;;10.11;98.83
50368;BME280;36281;34.132;-118.018;2023-02-28T06:32:03;100535.16;;;10.13;98.69
50368;BME280;36281;34.132;-118.018;2023-02-28T06:34:32;100542.28;;;10.12;98.60
50368;BME280;36281;34.132;-118.018;2023-02-28T06:37:02;100551.22;;;10.11;98.37
50368;BME280;36281;34.132;-118.018;2023-02-28T06:39:31;100545.28;;;10.09;98.37
50368;BME280;36281;34.132;-118.018;2023-02-28T06:42:02;100536.38;;;10.10;98.38
50368;BME280;36281;34.132;-118.018;2023-02-28T06:44:32;100539.00;;;10.10;98.28
50368;BME280;36281;34.132;-118.018;2023-02-28T06:47:04;100533.72;;;10.10;98.10
50368;BME280;36281;34.132;-118.018;2023-02-28T06:49:34;100540.66;;;10.11;98.17
50368;BME280;36281;34.132;-118.018;2023-02-28T06:52:04;100541.47;;;10.12;98.10
50368;BME280;36281;34.132;-118.018;2023-02-28T06:54:33;100536.53;;;10.08;98.13
50368;BME280;36281;34.132;-118.018;2023-02-28T06:57:04;100536.53;;;10.08;98.29
50368;BME280;36281;34.132;-118.018;2023-02-28T06:59:33;100532.06;;;10.09;98.21
50368;BME280;36281;34.132;-118.018;2023-02-28T07:02:03;100532.91;;;10.09;98.46
50368;BME280;36281;34.132;-118.018;2023-02-28T07:04:34;100533.72;;;10.10;98.28
50368;BME280;36281;34.132;-118.018;2023-02-28T07:07:03;100524.97;;;10.09;98.29
50368;BME280;36281;34.132;-118.018;2023-02-28T07:09:32;100525.13;;;10.08;98.41
50368;BME280;36281;34.132;-118.018;2023-02-28T07:12:03;100527.78;;;10.08;98.59
50368;BME280;36281;34.132;-118.018;2023-02-28T07:14:32;100519.22;;;10.06;98.67
50368;BME280;36281;34.132;-118.018;2023-02-28T07:17:01;100519.84;;;10.08;98.74
50368;BME280;36281;34.132;-118.018;2023-02-28T07:19:30;100521.47;;;10.09;98.74
50368;BME280;36281;34.132;-118.018;2023-02-28T07:22:00;100517.63;;;10.12;98.69
50368;BME280;36281;34.132;-118.018;2023-02-28T07:24:30;100521.31;;;10.10;98.73
50368;BME280;36281;34.132;-118.018;2023-02-28T07:26:59;100505.44;;;10.10;98.67
50368;BME280;36281;34.132;-118.018;2023-02-28T07:29:29;100507.25;;;10.10;98.51
50368;BME280;36281;34.132;-118.018;2023-02-28T07:31:58;100508.06;;;10.10;98.50
50368;BME280;36281;34.132;-118.018;2023-02-28T07:34:27;100508.06;;;10.10;98.53
50368;BME280;36281;34.132;-118.018;2023-02-28T07:36:56;100504.41;;;10.12;98.59
50368;BME280;36281;34.132;-118.018;2023-02-28T07:39:25;100505.22;;;10.12;98.64
50368;BME280;36281;34.132;-118.018;2023-02-28T07:41:54;100498.09;;;10.13;98.59
50368;BME280;36281;34.132;-118.018;2023-02-28T07:44:23;100503.19;;;10.14;98.57
50368;BME280;36281;34.132;-118.018;2023-02-28T07:46:54;100497.09;;;10.14;98.33
50368;BME280;36281;34.132;-118.018;2023-02-28T07:49:23;100503.19;;;10.14;98.43
50368;BME280;36281;34.132;-118.018;2023-02-28T07:51:52;100501.56;;;10.13;98.43
50368;BME280;36281;34.132;-118.018;2023-02-28T07:54:21;100498.09;;;10.13;98.49
50368;BME280;36281;34.132;-118.018;2023-02-28T07:56:50;100497.91;;;10.14;98.67
50368;BME280;36281;34.132;-118.018;2023-02-28T07:59:19;100497.28;;;10.12;98.63
50368;BME280;36281;34.132;-118.018;2023-02-28T08:01:48;100494.44;;;10.14;98.70
50368;BME280;36281;34.132;-118.018;2023-02-28T08:04:20;100496.25;;;10.13;98.71
50368;BME280;36281;34.132;-118.018;2023-02-28T08:06:49;100497.28;;;10.12;98.77
50368;BME280;36281;34.132;-118.018;2023-02-28T08:09:20;100500.94;;;10.11;98.78
50368;BME280;36281;34.132;-118.018;2023-02-28T08:11:49;100499.50;;;10.08;98.98
50368;BME280;36281;34.132;-118.018;2023-02-28T08:14:18;100507.25;;;10.10;98.71
50368;BME280;36281;34.132;-118.018;2023-02-28T08:16:47;100501.97;;;10.10;98.82
50368;BME280;36281;34.132;-118.018;2023-02-28T08:19:16;100500.31;;;10.09;99.00
50368;BME280;36281;34.132;-118.018;2023-02-28T08:21:47;100499.69;;;10.07;98.95
50368;BME280;36281;34.132;-118.018;2023-02-28T08:24:16;100495.41;;;10.06;98.65
50368;BME280;36281;34.132;-118.018;2023-02-28T08:26:45;100495.41;;;10.06;99.00
50368;BME280;36281;34.132;-118.018;2023-02-28T08:29:14;100491.13;;;10.05;98.94
50368;BME280;36281;34.132;-118.018;2023-02-28T08:31:43;100494.16;;;10.02;98.67
50368;BME280;36281;34.132;-118.018;2023-02-28T08:34:14;100493.34;;;10.01;98.54
50368;BME280;36281;34.132;-118.018;2023-02-28T08:36:43;100494.97;;;10.02;98.66
50368;BME280;36281;34.132;-118.018;2023-02-28T08:39:17;100490.69;;;10.01;98.64
50368;BME280;36281;34.132;-118.018;2023-02-28T08:41:48;100494.34;;;10.00;98.44
50368;BME280;36281;34.132;-118.018;2023-02-28T08:44:33;100489.06;;;10.00;98.67
50368;BME280;36281;34.132;-118.018;2023-02-28T08:47:02;100492.53;;;10.01;98.87
50368;BME280;36281;34.132;-118.018;2023-02-28T08:49:31;100495.19;;;10.01;98.74
50368;BME280;36281;34.132;-118.018;2023-02-28T08:52:01;100499.44;;;10.02;98.92
50368;BME280;36281;34.132;-118.018;2023-02-28T08:54:31;100493.34;;;10.01;98.83
50368;BME280;36281;34.132;-118.018;2023-02-28T08:57:02;100497.81;;;10.01;98.89
50368;BME280;36281;34.132;-118.018;2023-02-28T08:59:31;100503.94;;;10.01;98.91
50368;BME280;36281;34.132;-118.018;2023-02-28T09:02:00;100496.19;;;10.00;99.05
50368;BME280;36281;34.132;-118.018;2023-02-28T09:04:29;100496.19;;;10.00;99.16
50368;BME280;36281;34.132;-118.018;2023-02-28T09:07:01;100495.34;;;9.99;99.21
50368;BME280;36281;34.132;-118.018;2023-02-28T09:09:32;100494.53;;;9.99;99.03
50368;BME280;36281;34.132;-118.018;2023-02-28T09:12:01;100483.13;;;9.98;99.10
50368;BME280;36281;34.132;-118.018;2023-02-28T09:14:30;100481.88;;;9.94;98.95
50368;BME280;36281;34.132;-118.018;2023-02-28T09:16:59;100483.28;;;9.90;99.00
50368;BME280;36281;34.132;-118.018;2023-02-28T09:19:28;100479.00;;;9.89;99.00
50368;BME280;36281;34.132;-118.018;2023-02-28T09:21:57;100473.09;;;9.87;99.13
50368;BME280;36281;34.132;-118.018;2023-02-28T09:24:26;100473.28;;;9.86;99.07
50368;BME280;36281;34.132;-118.018;2023-02-28T09:26:57;100475.13;;;9.85;98.95
50368;BME280;36281;34.132;-118.018;2023-02-28T09:29:32;100456.75;;;9.83;98.89
50368;BME280;36281;34.132;-118.018;2023-02-28T09:32:01;100451.69;;;9.82;98.87
50368;BME280;36281;34.132;-118.018;2023-02-28T09:34:31;100449.22;;;9.80;98.75
50368;BME280;36281;34.132;-118.018;2023-02-28T09:37:00;100443.94;;;9.80;98.80
50368;BME280;36281;34.132;-118.018;2023-02-28T09:39:29;100439.03;;;9.77;98.59
50368;BME280;36281;34.132;-118.018;2023-02-28T09:42:00;100435.75;;;9.75;98.58
50368;BME280;36281;34.132;-118.018;2023-02-28T09:44:34;100430.66;;;9.74;98.52
50368;BME280;36281;34.132;-118.018;2023-02-28T09:47:11;100429.41;;;9.70;98.69
50368;BME280;36281;34.132;-118.018;2023-02-28T09:49:45;100432.06;;;9.70;98.69
50368;BME280;36281;34.132;-118.018;2023-02-28T09:52:18;100422.31;;;9.70;98.74
50368;BME280;36281;34.132;-118.018;2023-02-28T09:54:47;100422.31;;;9.70;98.85
50368;BME280;36281;34.132;-118.018;2023-02-28T09:57:33;100411.72;;;9.70;98.67
50368;BME280;36281;34.132;-118.018;2023-02-28T10:00:14;100410.06;;;9.69;98.64
50368;BME280;36281;34.132;-118.018;2023-02-28T10:03:06;100412.53;;;9.71;98.74
50368;BME280;36281;34.132;-118.018;2023-02-28T10:05:43;100410.06;;;9.69;98.70
50368;BME280;36281;34.132;-118.018;2023-02-28T10:08:21;100410.91;;;9.70;98.60
50368;BME280;36281;34.132;-118.018;2023-02-28T10:10:55;100408.88;;;9.72;98.67
50368;BME280;36281;34.132;-118.018;2023-02-28T10:13:32;100410.50;;;9.73;98.76
50368;BME280;36281;34.132;-118.018;2023-02-28T10:16:06;100406.03;;;9.73;98.75
50368;BME280;36281;34.132;-118.018;2023-02-28T10:18:42;100405.84;;;9.75;98.75
50368;BME280;36281;34.132;-118.018;2023-02-28T10:21:19;100397.06;;;9.74;98.90
50368;BME280;36281;34.132;-118.018;2023-02-28T10:23:53;100403.81;;;9.77;98.79
50368;BME280;36281;34.132;-118.018;2023-02-28T10:26:28;100396.91;;;9.76;98.66
50368;BME280;36281;34.132;-118.018;2023-02-28T10:29:00;100394.06;;;9.77;98.68
50368;BME280;36281;34.132;-118.018;2023-02-28T10:31:32;100398.16;;;9.80;98.94
50368;BME280;36281;34.132;-118.018;2023-02-28T10:34:02;100384.09;;;9.79;99.28
50368;BME280;36281;34.132;-118.018;2023-02-28T10:36:32;100388.19;;;9.82;99.32
50368;BME280;36281;34.132;-118.018;2023-02-28T10:39:35;100387.97;;;9.83;99.39
50368;BME280;36281;34.132;-118.018;2023-02-28T10:42:20;100386.34;;;9.82;99.39
50368;BME280;36281;34.132;-118.018;2023-02-28T10:45:06;100375.97;;;9.81;99.42
50368;BME280;36281;34.132;-118.018;2023-02-28T10:47:38;100376.78;;;9.81;99.48
50368;BME280;36281;34.132;-118.018;2023-02-28T10:50:28;100371.50;;;9.81;99.60
50368;BME280;36281;34.132;-118.018;2023-02-28T10:53:10;100374.75;;;9.83;99.43
50368;BME280;36281;34.132;-118.018;2023-02-28T10:55:43;100374.75;;;9.83;99.43
50368;BME280;36281;34.132;-118.018;2023-02-28T10:58:21;100366.22;;;9.81;99.39
50368;BME280;36281;34.132;-118.018;2023-02-28T11:00:53;100363.56;;;9.81;99.29
50368;BME280;36281;34.132;-118.018;2023-02-28T11:03:30;100361.94;;;9.80;99.23
50368;BME280;36281;34.132;-118.018;2023-02-28T11:06:05;100362.53;;;9.82;99.64
50368;BME280;36281;34.132;-118.018;2023-02-28T11:08:45;100355.63;;;9.81;99.58
50368;BME280;36281;34.132;-118.018;2023-02-28T11:11:16;100357.25;;;9.82;99.68
50368;BME280;36281;34.132;-118.018;2023-02-28T11:13:46;100357.25;;;9.82;99.75
50368;BME280;36281;34.132;-118.018;2023-02-28T11:16:21;100359.53;;;9.86;99.85
50368;BME280;36281;34.132;-118.018;2023-02-28T11:18:51;100350.78;;;9.85;99.73
50368;BME280;36281;34.132;-118.018;2023-02-28T11:21:25;100341.38;;;9.82;99.54
50368;BME280;36281;34.132;-118.018;2023-02-28T11:24:01;100341.16;;;9.77;99.83
50368;BME280;36281;34.132;-118.018;2023-02-28T11:26:40;100339.53;;;9.76;99.90
50368;BME280;36281;34.132;-118.018;2023-02-28T11:29:12;100339.53;;;9.76;99.98
50368;BME280;36281;34.132;-118.018;2023-02-28T11:32:02;100348.28;;;9.77;100.00
50368;BME280;36281;34.132;-118.018;2023-02-28T11:34:32;100355.84;;;9.80;100.00
50368;BME280;36281;34.132;-118.018;2023-02-28T11:37:01;100347.47;;;9.76;100.00
50368;BME280;36281;34.132;-118.018;2023-02-28T11:39:33;100345.81;;;9.75;100.00
50368;BME280;36281;34.132;-118.018;2023-02-28T11:42:23;100346.00;;;9.74;100.00
50368;BME280;36281;34.132;-118.018;2023-02-28T11:45:08;100344.56;;;9.71;100.00
50368;BME280;36281;34.132;-118.018;2023-02-28T11:47:47;100339.66;;;9.68;100.00
50368;BME280;36281;34.132;-118.018;2023-02-28T11:50:42;100336.00;;;9.69;100.00
50368;BME280;36281;34.132;-118.018;2023-02-28T11:53:20;100337.03;;;9.68;100.00
50368;BME280;36281;34.132;-118.018;2023-02-28T11:56:01;100338.41;;;9.64;100.00
50368;BME280;36281;34.132;-118.018;2023-02-28T11:58:41;100335.38;;;9.61;100.00
50368;BME280;36281;34.132;-118.018;2023-02-28T12:04:17;100326.78;;;9.58;99.69
50368;BME280;36281;34.132;-118.018;2023-02-28T12:06:57;100319.44;;;9.54;99.70
50368;BME280;36281;34.132;-118.018;2023-02-28T12:09:37;100324.13;;;9.52;99.70
50368;BME280;36281;34.132;-118.018;2023-02-28T12:12:19;100315.16;;;9.53;99.84
50368;BME280;36281;34.132;-118.018;2023-02-28T12:15:05;100325.75;;;9.53;99.97
50368;BME280;36281;34.132;-118.018;2023-02-28T12:17:57;100313.75;;;9.50;100.00
50368;BME280;36281;34.132;-118.018;2023-02-28T12:20:33;100313.09;;;9.48;100.00
50368;BME280;36281;34.132;-118.018;2023-02-28T12:23:23;100316.16;;;9.45;99.50
50368;BME280;36281;34.132;-118.018;2023-02-28T12:26:04;100322.00;;;9.41;99.14
50368;BME280;36281;34.132;-118.018;2023-02-28T12:28:41;100332.13;;;9.37;98.81
50368;BME280;36281;34.132;-118.018;2023-02-28T12:31:15;100331.91;;;9.32;98.48
50368;BME280;36281;34.132;-118.018;2023-02-28T12:33:47;100321.09;;;9.27;98.10
50368;BME280;36281;34.132;-118.018;2023-02-28T12:36:21;100325.13;;;9.23;97.44
50368;BME280;36281;34.132;-118.018;2023-02-28T12:38:55;100329.53;;;9.16;97.04
50368;BME280;36281;34.132;-118.018;2023-02-28T12:41:29;100317.28;;;9.08;97.05
50368;BME280;36281;34.132;-118.018;2023-02-28T12:44:06;100315.03;;;9.05;96.69
50368;BME280;36281;34.132;-118.018;2023-02-28T12:46:40;100313.78;;;9.01;96.30
50368;BME280;36281;34.132;-118.018;2023-02-28T12:49:14;100317.53;;;8.92;95.75
50368;BME280;36281;34.132;-118.018;2023-02-28T12:51:46;100318.31;;;8.86;95.36
50368;BME280;36281;34.132;-118.018;2023-02-28T12:54:22;100313.41;;;8.83;95.48
50368;BME280;36281;34.132;-118.018;2023-02-28T12:56:58;100315.59;;;8.79;95.57